sensor_id;sensor_type;location;lat;lon;timestamp;temperature;humidity
59857;DHT22;45733;52.668;6.860;2023-09-18T00:02:20;18.70;99.90
59857;DHT22;45733;52.668;6.860;2023-09-18T00:04:48;19.10;99.90
59857;DHT22;45733;52.668;6.860;2023-09-18T00:07:17;19.20;99.90
59857;DHT22;45733;52.668;6.860;2023-09-18T00:09:43;19.10;99.90
59857;DHT22;45733;52.668;6.860;2023-09-18T00:12:09;19.10;99.90
59857;DHT22;45733;52.668;6.860;2023-09-18T00:14:36;18.30;99.90
59857;DHT22;45733;52.668;6.860;2023-09-18T00:17:05;19.00;99.90
59857;DHT22;45733;52.668;6.860;2023-09-18T00:19:31;18.50;99.90
59857;DHT22;45733;52.668;6.860;2023-09-18T00:21:59;19.20;99.90
59857;DHT22;45733;52.668;6.860;2023-09-18T00:24:29;19.40;99.90
59857;DHT22;45733;52.668;6.860;2023-09-18T00:34:29;18.90;99.90
59857;DHT22;45733;52.668;6.860;2023-09-18T00:36:59;19.20;99.90
59857;DHT22;45733;52.668;6.860;2023-09-18T00:39:26;19.20;99.90
59857;DHT22;45733;52.668;6.860;2023-09-18T00:41:51;18.90;99.90
59857;DHT22;45733;52.668;6.860;2023-09-18T00:44:23;18.50;99.90
59857;DHT22;45733;52.668;6.860;2023-09-18T00:46:50;19.30;99.90
59857;DHT22;45733;52.668;6.860;2023-09-18T00:49:17;19.00;99.90
59857;DHT22;45733;52.668;6.860;2023-09-18T00:51:44;19.20;99.90
59857;DHT22;45733;52.668;6.860;2023-09-18T00:54:11;18.70;99.90
59857;DHT22;45733;52.668;6.860;2023-09-18T00:56:37;19.20;99.90
59857;DHT22;45733;52.668;6.860;2023-09-18T00:59:02;19.30;99.90
59857;DHT22;45733;52.668;6.860;2023-09-18T01:01:29;19.10;99.90
59857;DHT22;45733;52.668;6.860;2023-09-18T01:03:56;18.90;99.90
59857;DHT22;45733;52.668;6.860;2023-09-18T01:06:28;19.10;99.90
59857;DHT22;45733;52.668;6.860;2023-09-18T01:08:56;19.10;99.90
59857;DHT22;45733;52.668;6.860;2023-09-18T01:11:43;19.10;99.90
59857;DHT22;45733;52.668;6.860;2023-09-18T01:14:15;18.80;99.90
59857;DHT22;45733;52.668;6.860;2023-09-18T01:16:56;18.90;99.90
59857;DHT22;45733;52.668;6.860;2023-09-18T01:19:45;18.90;99.90
59857;DHT22;45733;52.668;6.860;2023-09-18T01:22:16;19.30;99.90
59857;DHT22;45733;52.668;6.860;2023-09-18T01:24:44;18.80;99.90
59857;DHT22;45733;52.668;6.860;2023-09-18T01:27:12;19.20;99.90
59857;DHT22;45733;52.668;6.860;2023-09-18T01:29:43;19.10;99.90
59857;DHT22;45733;52.668;6.860;2023-09-18T01:32:08;18.80;99.90
59857;DHT22;45733;52.668;6.860;2023-09-18T01:34:41;18.80;99.90
59857;DHT22;45733;52.668;6.860;2023-09-18T01:37:09;19.20;99.90
59857;DHT22;45733;52.668;6.860;2023-09-18T01:39:39;18.70;99.90
59857;DHT22;45733;52.668;6.860;2023-09-18T01:42:06;18.80;99.90
59857;DHT22;45733;52.668;6.860;2023-09-18T01:44:35;18.70;99.90
59857;DHT22;45733;52.668;6.860;2023-09-18T01:47:04;19.20;99.90
59857;DHT22;45733;52.668;6.860;2023-09-18T01:49:38;19.00;99.90
59857;DHT22;45733;52.668;6.860;2023-09-18T01:52:06;18.80;99.90
59857;DHT22;45733;52.668;6.860;2023-09-18T01:54:32;19.00;99.90
59857;DHT22;45733;52.668;6.860;2023-09-18T01:56:59;18.70;99.90
59857;DHT22;45733;52.668;6.860;2023-09-18T01:59:25;19.20;99.90
59857;DHT22;45733;52.668;6.860;2023-09-18T02:01:52;18.80;99.90
59857;DHT22;45733;52.668;6.860;2023-09-18T02:04:18;19.00;99.90
59857;DHT22;45733;52.668;6.860;2023-09-18T02:06:44;19.20;99.90
59857;DHT22;45733;52.668;6.860;2023-09-18T02:09:10;19.20;99.90
59857;DHT22;45733;52.668;6.860;2023-09-18T02:11:41;19.30;99.90
59857;DHT22;45733;52.668;6.860;2023-09-18T02:14:07;19.10;99.90
59857;DHT22;45733;52.668;6.860;2023-09-18T02:16:34;19.20;99.90
59857;DHT22;45733;52.668;6.860;2023-09-18T02:19:00;19.10;99.90
59857;DHT22;45733;52.668;6.860;2023-09-18T02:21:25;19.00;99.90
59857;DHT22;45733;52.668;6.860;2023-09-18T02:23:52;19.30;99.90
59857;DHT22;45733;52.668;6.860;2023-09-18T02:26:19;18.80;99.90
59857;DHT22;45733;52.668;6.860;2023-09-18T02:28:45;19.10;99.90
59857;DHT22;45733;52.668;6.860;2023-09-18T02:31:11;19.20;99.90
59857;DHT22;45733;52.668;6.860;2023-09-18T02:33:37;19.40;99.90
59857;DHT22;45733;52.668;6.860;2023-09-18T02:36:03;19.20;99.90
59857;DHT22;45733;52.668;6.860;2023-09-18T02:38:29;19.00;99.90
59857;DHT22;45733;52.668;6.860;2023-09-18T02:40:57;19.00;99.90
59857;DHT22;45733;52.668;6.860;2023-09-18T02:43:23;19.20;99.90
59857;DHT22;45733;52.668;6.860;2023-09-18T02:45:49;19.40;99.90
59857;DHT22;45733;52.668;6.860;2023-09-18T02:48:16;19.30;99.90
59857;DHT22;45733;52.668;6.860;2023-09-18T02:50:42;19.30;99.90
59857;DHT22;45733;52.668;6.860;2023-09-18T02:53:17;19.20;99.90
59857;DHT22;45733;52.668;6.860;2023-09-18T02:55:44;19.20;99.90
59857;DHT22;45733;52.668;6.860;2023-09-18T02:58:10;19.20;99.90
59857;DHT22;45733;52.668;6.860;2023-09-18T03:00:41;19.20;99.90
59857;DHT22;45733;52.668;6.860;2023-09-18T03:03:07;19.00;99.90
59857;DHT22;45733;52.668;6.860;2023-09-18T03:05:33;19.00;99.90
59857;DHT22;45733;52.668;6.860;2023-09-18T03:07:59;19.30;99.90
59857;DHT22;45733;52.668;6.860;2023-09-18T03:10:25;19.30;99.90
59857;DHT22;45733;52.668;6.860;2023-09-18T03:12:50;19.00;99.90
59857;DHT22;45733;52.668;6.860;2023-09-18T03:15:16;19.00;99.90
59857;DHT22;45733;52.668;6.860;2023-09-18T03:17:42;19.00;99.90
59857;DHT22;45733;52.668;6.860;2023-09-18T03:20:08;19.20;99.90
59857;DHT22;45733;52.668;6.860;2023-09-18T03:22:35;18.90;99.90
59857;DHT22;45733;52.668;6.860;2023-09-18T03:25:01;19.40;99.90
59857;DHT22;45733;52.668;6.860;2023-09-18T03:27:26;19.10;99.90
59857;DHT22;45733;52.668;6.860;2023-09-18T03:30:00;18.90;99.90
59857;DHT22;45733;52.668;6.860;2023-09-18T03:32:25;19.20;99.90
59857;DHT22;45733;52.668;6.860;2023-09-18T03:34:52;18.90;99.90
59857;DHT22;45733;52.668;6.860;2023-09-18T03:37:18;19.00;99.90
59857;DHT22;45733;52.668;6.860;2023-09-18T03:39:46;18.90;99.90
59857;DHT22;45733;52.668;6.860;2023-09-18T03:42:12;18.90;99.90
59857;DHT22;45733;52.668;6.860;2023-09-18T03:44:38;19.30;99.90
59857;DHT22;45733;52.668;6.860;2023-09-18T03:47:06;19.30;99.90
59857;DHT22;45733;52.668;6.860;2023-09-18T03:49:32;18.90;99.90
59857;DHT22;45733;52.668;6.860;2023-09-18T03:52:04;19.30;99.90
59857;DHT22;45733;52.668;6.860;2023-09-18T03:54:30;18.90;99.90
59857;DHT22;45733;52.668;6.860;2023-09-18T03:56:58;19.10;99.90
59857;DHT22;45733;52.668;6.860;2023-09-18T03:59:31;19.20;99.90
59857;DHT22;45733;52.668;6.860;2023-09-18T04:02:00;19.20;99.90
59857;DHT22;45733;52.668;6.860;2023-09-18T04:04:32;19.20;99.90
59857;DHT22;45733;52.668;6.860;2023-09-18T04:06:57;18.90;99.90
59857;DHT22;45733;52.668;6.860;2023-09-18T04:09:23;19.20;99.90
59857;DHT22;45733;52.668;6.860;2023-09-18T04:11:49;18.90;99.90
59857;DHT22;45733;52.668;6.860;2023-09-18T04:14:20;19.20;99.90
59857;DHT22;45733;52.668;6.860;2023-09-18T04:16:45;19.00;99.90
59857;DHT22;45733;52.668;6.860;2023-09-18T04:19:16;18.90;99.90
59857;DHT22;45733;52.668;6.860;2023-09-18T04:21:45;19.00;99.90
59857;DHT22;45733;52.668;6.860;2023-09-18T04:24:12;19.00;99.90
59857;DHT22;45733;52.668;6.860;2023-09-18T04:26:40;19.20;99.90
59857;DHT22;45733;52.668;6.860;2023-09-18T04:29:06;18.80;99.90
59857;DHT22;45733;52.668;6.860;2023-09-18T04:31:37;19.20;99.90
59857;DHT22;45733;52.668;6.860;2023-09-18T04:34:06;19.00;99.90
59857;DHT22;45733;52.668;6.860;2023-09-18T04:36:32;18.80;99.90
59857;DHT22;45733;52.668;6.860;2023-09-18T04:38:58;19.10;99.90
59857;DHT22;45733;52.668;6.860;2023-09-18T04:41:23;19.20;99.90
59857;DHT22;45733;52.668;6.860;2023-09-18T04:43:49;19.00;99.90
59857;DHT22;45733;52.668;6.860;2023-09-18T04:46:16;19.20;99.90
59857;DHT22;45733;52.668;6.860;2023-09-18T04:48:42;19.20;99.90
59857;DHT22;45733;52.668;6.860;2023-09-18T04:51:07;19.00;99.90
59857;DHT22;45733;52.668;6.860;2023-09-18T04:53:33;18.80;99.90
59857;DHT22;45733;52.668;6.860;2023-09-18T04:55:59;19.00;99.90
59857;DHT22;45733;52.668;6.860;2023-09-18T04:58:26;19.10;99.90
59857;DHT22;45733;52.668;6.860;2023-09-18T05:00:59;19.00;99.90
59857;DHT22;45733;52.668;6.860;2023-09-18T05:03:25;18.90;99.90
59857;DHT22;45733;52.668;6.860;2023-09-18T05:05:54;19.00;99.90
59857;DHT22;45733;52.668;6.860;2023-09-18T05:08:20;19.10;99.90
59857;DHT22;45733;52.668;6.860;2023-09-18T05:10:46;19.00;99.90
59857;DHT22;45733;52.668;6.860;2023-09-18T05:13:13;19.10;99.90
59857;DHT22;45733;52.668;6.860;2023-09-18T05:15:38;18.80;99.90
59857;DHT22;45733;52.668;6.860;2023-09-18T05:18:05;18.90;99.90
59857;DHT22;45733;52.668;6.860;2023-09-18T05:20:35;18.70;99.90
59857;DHT22;45733;52.668;6.860;2023-09-18T05:23:01;19.00;99.90
59857;DHT22;45733;52.668;6.860;2023-09-18T05:25:30;18.60;99.90
59857;DHT22;45733;52.668;6.860;2023-09-18T05:27:59;18.90;99.90
59857;DHT22;45733;52.668;6.860;2023-09-18T05:30:30;18.60;99.90
59857;DHT22;45733;52.668;6.860;2023-09-18T05:33:06;18.90;99.90
59857;DHT22;45733;52.668;6.860;2023-09-18T05:35:40;18.60;99.90
59857;DHT22;45733;52.668;6.860;2023-09-18T05:38:07;19.00;99.90
59857;DHT22;45733;52.668;6.860;2023-09-18T05:40:34;18.70;99.90
59857;DHT22;45733;52.668;6.860;2023-09-18T05:43:00;18.80;99.90
59857;DHT22;45733;52.668;6.860;2023-09-18T05:45:26;19.10;99.90
59857;DHT22;45733;52.668;6.860;2023-09-18T05:47:53;19.00;99.90
59857;DHT22;45733;52.668;6.860;2023-09-18T05:50:31;19.10;99.90
59857;DHT22;45733;52.668;6.860;2023-09-18T05:52:58;19.20;99.90
59857;DHT22;45733;52.668;6.860;2023-09-18T05:55:32;19.20;99.90
59857;DHT22;45733;52.668;6.860;2023-09-18T05:57:58;19.40;99.90
59857;DHT22;45733;52.668;6.860;2023-09-18T06:00:24;19.30;99.90
59857;DHT22;45733;52.668;6.860;2023-09-18T06:02:50;19.60;99.90
59857;DHT22;45733;52.668;6.860;2023-09-18T06:05:19;19.30;99.90
59857;DHT22;45733;52.668;6.860;2023-09-18T06:07:50;19.70;99.90
59857;DHT22;45733;52.668;6.860;2023-09-18T06:10:17;19.50;99.90
59857;DHT22;45733;52.668;6.860;2023-09-18T06:12:46;19.80;99.90
59857;DHT22;45733;52.668;6.860;2023-09-18T06:15:12;19.50;99.90
59857;DHT22;45733;52.668;6.860;2023-09-18T06:17:47;19.60;99.90
59857;DHT22;45733;52.668;6.860;2023-09-18T06:20:12;19.50;99.90
59857;DHT22;45733;52.668;6.860;2023-09-18T06:22:40;19.50;99.90
59857;DHT22;45733;52.668;6.860;2023-09-18T06:25:09;19.80;99.90
59857;DHT22;45733;52.668;6.860;2023-09-18T06:27:38;20.00;99.90
59857;DHT22;45733;52.668;6.860;2023-09-18T06:30:07;19.80;99.90
59857;DHT22;45733;52.668;6.860;2023-09-18T06:32:33;19.90;99.90
59857;DHT22;45733;52.668;6.860;2023-09-18T06:35:00;20.10;99.90
59857;DHT22;45733;52.668;6.860;2023-09-18T06:37:25;20.10;99.90
59857;DHT22;45733;52.668;6.860;2023-09-18T06:39:55;20.00;99.90
59857;DHT22;45733;52.668;6.860;2023-09-18T06:42:25;20.40;99.90
59857;DHT22;45733;52.668;6.860;2023-09-18T06:44:50;20.00;99.90
59857;DHT22;45733;52.668;6.860;2023-09-18T06:47:16;20.30;99.90
59857;DHT22;45733;52.668;6.860;2023-09-18T06:49:42;20.10;99.90
59857;DHT22;45733;52.668;6.860;2023-09-18T06:52:09;20.20;99.90
59857;DHT22;45733;52.668;6.860;2023-09-18T06:54:34;20.10;99.90
59857;DHT22;45733;52.668;6.860;2023-09-18T06:57:04;20.40;99.90
59857;DHT22;45733;52.668;6.860;2023-09-18T06:59:30;19.90;99.90
59857;DHT22;45733;52.668;6.860;2023-09-18T07:01:59;20.20;99.90
59857;DHT22;45733;52.668;6.860;2023-09-18T07:04:28;20.40;99.90
59857;DHT22;45733;52.668;6.860;2023-09-18T07:06:54;20.40;99.90
59857;DHT22;45733;52.668;6.860;2023-09-18T07:09:20;19.70;99.90
59857;DHT22;45733;52.668;6.860;2023-09-18T07:11:49;20.50;99.90
59857;DHT22;45733;52.668;6.860;2023-09-18T07:14:14;19.80;99.90
59857;DHT22;45733;52.668;6.860;2023-09-18T07:16:40;19.80;99.90
59857;DHT22;45733;52.668;6.860;2023-09-18T07:19:06;20.60;99.90
59857;DHT22;45733;52.668;6.860;2023-09-18T07:21:32;19.90;99.90
59857;DHT22;45733;52.668;6.860;2023-09-18T07:24:00;19.90;99.90
59857;DHT22;45733;52.668;6.860;2023-09-18T07:26:26;20.10;99.90
59857;DHT22;45733;52.668;6.860;2023-09-18T07:28:51;20.50;99.90
59857;DHT22;45733;52.668;6.860;2023-09-18T07:31:17;20.20;99.90
59857;DHT22;45733;52.668;6.860;2023-09-18T07:33:43;20.50;99.90
59857;DHT22;45733;52.668;6.860;2023-09-18T07:36:09;20.30;99.90
59857;DHT22;45733;52.668;6.860;2023-09-18T07:38:38;20.80;99.90
59857;DHT22;45733;52.668;6.860;2023-09-18T07:41:13;20.60;99.90
59857;DHT22;45733;52.668;6.860;2023-09-18T07:43:40;20.60;99.90
59857;DHT22;45733;52.668;6.860;2023-09-18T07:46:07;20.50;99.90
59857;DHT22;45733;52.668;6.860;2023-09-18T07:48:33;20.50;99.90
59857;DHT22;45733;52.668;6.860;2023-09-18T07:50:59;20.50;99.90
59857;DHT22;45733;52.668;6.860;2023-09-18T07:53:25;21.20;99.90
59857;DHT22;45733;52.668;6.860;2023-09-18T07:56:48;20.60;99.90
59857;DHT22;45733;52.668;6.860;2023-09-18T07:59:28;20.60;99.90
59857;DHT22;45733;52.668;6.860;2023-09-18T08:01:54;20.60;99.90
59857;DHT22;45733;52.668;6.860;2023-09-18T08:04:23;20.40;99.90
59857;DHT22;45733;52.668;6.860;2023-09-18T08:06:48;20.30;99.90
59857;DHT22;45733;52.668;6.860;2023-09-18T08:09:14;20.40;99.90
59857;DHT22;45733;52.668;6.860;2023-09-18T08:11:41;21.00;99.90
59857;DHT22;45733;52.668;6.860;2023-09-18T08:14:09;21.00;99.90
59857;DHT22;45733;52.668;6.860;2023-09-18T08:16:37;20.70;99.90
59857;DHT22;45733;52.668;6.860;2023-09-18T08:19:05;20.40;99.90
59857;DHT22;45733;52.668;6.860;2023-09-18T08:21:32;20.70;99.90
59857;DHT22;45733;52.668;6.860;2023-09-18T08:23:58;21.10;99.90
59857;DHT22;45733;52.668;6.860;2023-09-18T08:26:24;20.90;99.90
59857;DHT22;45733;52.668;6.860;2023-09-18T08:28:52;20.80;99.90
59857;DHT22;45733;52.668;6.860;2023-09-18T08:31:18;21.00;99.90
59857;DHT22;45733;52.668;6.860;2023-09-18T08:33:44;21.30;99.90
59857;DHT22;45733;52.668;6.860;2023-09-18T08:36:09;21.00;99.90
59857;DHT22;45733;52.668;6.860;2023-09-18T08:38:38;21.30;99.90
59857;DHT22;45733;52.668;6.860;2023-09-18T08:41:10;21.50;99.90
59857;DHT22;45733;52.668;6.860;2023-09-18T08:43:37;21.10;99.90
59857;DHT22;45733;52.668;6.860;2023-09-18T08:46:05;21.70;99.90
59857;DHT22;45733;52.668;6.860;2023-09-18T08:48:32;21.40;99.90
59857;DHT22;45733;52.668;6.860;2023-09-18T08:51:05;21.20;99.90
59857;DHT22;45733;52.668;6.860;2023-09-18T08:53:32;21.50;99.90
59857;DHT22;45733;52.668;6.860;2023-09-18T08:55:59;21.60;99.90
59857;DHT22;45733;52.668;6.860;2023-09-18T08:58:37;21.90;99.90
59857;DHT22;45733;52.668;6.860;2023-09-18T09:01:06;21.50;99.90
59857;DHT22;45733;52.668;6.860;2023-09-18T09:03:36;21.90;99.90
59857;DHT22;45733;52.668;6.860;2023-09-18T09:06:02;21.60;99.90
59857;DHT22;45733;52.668;6.860;2023-09-18T09:08:31;21.60;99.90
59857;DHT22;45733;52.668;6.860;2023-09-18T09:10:57;21.70;99.90
59857;DHT22;45733;52.668;6.860;2023-09-18T09:13:25;21.70;99.90
59857;DHT22;45733;52.668;6.860;2023-09-18T09:15:53;21.70;99.90
59857;DHT22;45733;52.668;6.860;2023-09-18T09:18:21;22.00;99.90
59857;DHT22;45733;52.668;6.860;2023-09-18T09:21:03;22.00;99.90
59857;DHT22;45733;52.668;6.860;2023-09-18T09:23:47;22.20;99.90
59857;DHT22;45733;52.668;6.860;2023-09-18T09:26:21;22.40;99.90
59857;DHT22;45733;52.668;6.860;2023-09-18T09:28:48;22.50;99.90
59857;DHT22;45733;52.668;6.860;2023-09-18T09:31:28;22.30;99.90
59857;DHT22;45733;52.668;6.860;2023-09-18T09:33:55;22.20;99.90
59857;DHT22;45733;52.668;6.860;2023-09-18T09:36:24;22.00;99.90
59857;DHT22;45733;52.668;6.860;2023-09-18T09:38:56;22.00;99.90
59857;DHT22;45733;52.668;6.860;2023-09-18T09:41:23;22.10;99.90
59857;DHT22;45733;52.668;6.860;2023-09-18T09:43:49;22.20;99.90
59857;DHT22;45733;52.668;6.860;2023-09-18T09:46:17;22.30;99.90
59857;DHT22;45733;52.668;6.860;2023-09-18T09:49:02;22.50;99.90
59857;DHT22;45733;52.668;6.860;2023-09-18T09:51:29;22.40;99.90
59857;DHT22;45733;52.668;6.860;2023-09-18T09:53:55;22.70;99.90
59857;DHT22;45733;52.668;6.860;2023-09-18T09:56:21;22.70;99.90
59857;DHT22;45733;52.668;6.860;2023-09-18T09:59:01;22.90;99.90
59857;DHT22;45733;52.668;6.860;2023-09-18T10:01:33;22.60;99.90
59857;DHT22;45733;52.668;6.860;2023-09-18T10:04:04;22.50;99.90
59857;DHT22;45733;52.668;6.860;2023-09-18T10:06:36;22.50;99.90
59857;DHT22;45733;52.668;6.860;2023-09-18T10:09:03;22.40;99.90
59857;DHT22;45733;52.668;6.860;2023-09-18T10:11:34;22.50;99.90
59857;DHT22;45733;52.668;6.860;2023-09-18T10:14:09;22.40;99.90
59857;DHT22;45733;52.668;6.860;2023-09-18T10:16:50;22.40;99.90
59857;DHT22;45733;52.668;6.860;2023-09-18T10:19:36;22.80;99.90
59857;DHT22;45733;52.668;6.860;2023-09-18T10:24:55;22.70;99.90
59857;DHT22;45733;52.668;6.860;2023-09-18T10:27:26;22.70;99.90
59857;DHT22;45733;52.668;6.860;2023-09-18T10:29:54;22.70;99.90
59857;DHT22;45733;52.668;6.860;2023-09-18T10:32:20;23.00;99.90
59857;DHT22;45733;52.668;6.860;2023-09-18T10:34:47;23.30;99.90
59857;DHT22;45733;52.668;6.860;2023-09-18T10:37:15;23.00;99.90
59857;DHT22;45733;52.668;6.860;2023-09-18T10:40:02;23.40;99.90
59857;DHT22;45733;52.668;6.860;2023-09-18T10:42:30;23.40;99.90
59857;DHT22;45733;52.668;6.860;2023-09-18T10:44:56;23.10;99.90
59857;DHT22;45733;52.668;6.860;2023-09-18T10:47:23;23.10;99.90
59857;DHT22;45733;52.668;6.860;2023-09-18T10:49:49;23.00;99.90
59857;DHT22;45733;52.668;6.860;2023-09-18T10:52:15;23.40;99.90
59857;DHT22;45733;52.668;6.860;2023-09-18T10:54:45;23.20;99.90
59857;DHT22;45733;52.668;6.860;2023-09-18T10:57:11;23.40;99.90
59857;DHT22;45733;52.668;6.860;2023-09-18T10:59:44;24.00;99.90
59857;DHT22;45733;52.668;6.860;2023-09-18T11:02:13;24.50;99.90
59857;DHT22;45733;52.668;6.860;2023-09-18T11:04:43;24.90;99.90
59857;DHT22;45733;52.668;6.860;2023-09-18T11:07:22;24.90;99.90
59857;DHT22;45733;52.668;6.860;2023-09-18T11:09:48;25.10;99.90
59857;DHT22;45733;52.668;6.860;2023-09-18T11:12:17;24.70;99.90
59857;DHT22;45733;52.668;6.860;2023-09-18T11:14:57;24.20;99.90
59857;DHT22;45733;52.668;6.860;2023-09-18T11:17:37;23.90;99.90
59857;DHT22;45733;52.668;6.860;2023-09-18T11:28:01;23.80;99.90
59857;DHT22;45733;52.668;6.860;2023-09-18T11:30:34;23.70;99.90
59857;DHT22;45733;52.668;6.860;2023-09-18T11:33:05;23.60;99.90
59857;DHT22;45733;52.668;6.860;2023-09-18T11:35:35;24.00;99.90
59857;DHT22;45733;52.668;6.860;2023-09-18T11:38:09;24.00;99.90
59857;DHT22;45733;52.668;6.860;2023-09-18T11:40:37;24.00;99.90
59857;DHT22;45733;52.668;6.860;2023-09-18T11:43:20;24.30;99.90
59857;DHT22;45733;52.668;6.860;2023-09-18T11:46:09;24.70;99.90
59857;DHT22;45733;52.668;6.860;2023-09-18T11:48:41;25.00;99.90
59857;DHT22;45733;52.668;6.860;2023-09-18T11:51:13;25.20;99.90
59857;DHT22;45733;52.668;6.860;2023-09-18T11:53:49;25.40;99.90
59857;DHT22;45733;52.668;6.860;2023-09-18T11:56:17;25.20;99.90
59857;DHT22;45733;52.668;6.860;2023-09-18T11:58:47;25.50;99.90
59857;DHT22;45733;52.668;6.860;2023-09-18T12:01:14;25.80;99.90
59857;DHT22;45733;52.668;6.860;2023-09-18T12:03:41;25.20;99.90
59857;DHT22;45733;52.668;6.860;2023-09-18T12:06:07;25.30;99.90
59857;DHT22;45733;52.668;6.860;2023-09-18T12:08:39;25.30;99.90
59857;DHT22;45733;52.668;6.860;2023-09-18T12:11:06;24.50;99.90
59857;DHT22;45733;52.668;6.860;2023-09-18T12:13:31;24.90;99.90
59857;DHT22;45733;52.668;6.860;2023-09-18T12:16:17;25.10;99.90
59857;DHT22;45733;52.668;6.860;2023-09-18T12:18:48;24.40;99.90
59857;DHT22;45733;52.668;6.860;2023-09-18T12:21:19;24.50;99.90
59857;DHT22;45733;52.668;6.860;2023-09-18T12:23:46;24.20;99.90
59857;DHT22;45733;52.668;6.860;2023-09-18T12:26:13;24.60;99.90
59857;DHT22;45733;52.668;6.860;2023-09-18T12:28:42;24.90;99.90
59857;DHT22;45733;52.668;6.860;2023-09-18T12:31:15;25.30;99.90
59857;DHT22;45733;52.668;6.860;2023-09-18T12:33:42;25.50;99.90
59857;DHT22;45733;52.668;6.860;2023-09-18T12:36:14;25.60;99.90
59857;DHT22;45733;52.668;6.860;2023-09-18T12:38:45;25.80;99.90
59857;DHT22;45733;52.668;6.860;2023-09-18T12:41:20;25.60;99.90
59857;DHT22;45733;52.668;6.860;2023-09-18T12:43:46;25.60;99.90
59857;DHT22;45733;52.668;6.860;2023-09-18T12:46:12;25.60;99.90
59857;DHT22;45733;52.668;6.860;2023-09-18T12:48:39;25.30;99.90
59857;DHT22;45733;52.668;6.860;2023-09-18T12:51:14;25.20;99.90
59857;DHT22;45733;52.668;6.860;2023-09-18T12:53:59;24.90;99.90
59857;DHT22;45733;52.668;6.860;2023-09-18T12:56:27;25.10;99.90
59857;DHT22;45733;52.668;6.860;2023-09-18T12:58:57;25.10;99.90
59857;DHT22;45733;52.668;6.860;2023-09-18T13:01:24;25.50;99.90
59857;DHT22;45733;52.668;6.860;2023-09-18T13:03:53;25.60;99.90
59857;DHT22;45733;52.668;6.860;2023-09-18T13:06:19;25.40;99.90
59857;DHT22;45733;52.668;6.860;2023-09-18T13:08:46;24.90;99.90
59857;DHT22;45733;52.668;6.860;2023-09-18T13:11:15;24.40;99.90
59857;DHT22;45733;52.668;6.860;2023-09-18T13:13:56;24.00;99.90
59857;DHT22;45733;52.668;6.860;2023-09-18T13:16:24;23.70;99.90
59857;DHT22;45733;52.668;6.860;2023-09-18T13:18:50;23.50;99.90
59857;DHT22;45733;52.668;6.860;2023-09-18T13:21:20;23.40;99.90
59857;DHT22;45733;52.668;6.860;2023-09-18T13:23:46;23.40;99.90
59857;DHT22;45733;52.668;6.860;2023-09-18T13:26:12;23.30;99.90
59857;DHT22;45733;52.668;6.860;2023-09-18T13:28:40;23.30;99.90
59857;DHT22;45733;52.668;6.860;2023-09-18T13:31:11;23.20;99.90
59857;DHT22;45733;52.668;6.860;2023-09-18T13:33:40;23.20;99.90
59857;DHT22;45733;52.668;6.860;2023-09-18T13:36:05;24.00;99.90
59857;DHT22;45733;52.668;6.860;2023-09-18T13:38:37;24.40;99.90
59857;DHT22;45733;52.668;6.860;2023-09-18T13:41:03;24.80;99.90
59857;DHT22;45733;52.668;6.860;2023-09-18T13:43:31;24.90;99.90
59857;DHT22;45733;52.668;6.860;2023-09-18T13:46:00;24.90;99.90
59857;DHT22;45733;52.668;6.860;2023-09-18T13:48:28;25.00;99.90
59857;DHT22;45733;52.668;6.860;2023-09-18T13:50:54;25.00;99.90
59857;DHT22;45733;52.668;6.860;2023-09-18T13:53:29;25.10;99.90
59857;DHT22;45733;52.668;6.860;2023-09-18T13:55:58;25.20;99.90
59857;DHT22;45733;52.668;6.860;2023-09-18T13:58:24;25.20;99.90
59857;DHT22;45733;52.668;6.860;2023-09-18T14:00:50;25.10;99.90
59857;DHT22;45733;52.668;6.860;2023-09-18T14:03:16;24.90;99.90
59857;DHT22;45733;52.668;6.860;2023-09-18T14:06:02;24.80;99.90
59857;DHT22;45733;52.668;6.860;2023-09-18T14:08:30;25.00;99.90
59857;DHT22;45733;52.668;6.860;2023-09-18T14:10:56;25.00;99.90
59857;DHT22;45733;52.668;6.860;2023-09-18T14:13:21;24.60;99.90
59857;DHT22;45733;52.668;6.860;2023-09-18T14:15:47;24.90;99.90
59857;DHT22;45733;52.668;6.860;2023-09-18T14:18:13;24.90;99.90
59857;DHT22;45733;52.668;6.860;2023-09-18T14:20:41;24.70;99.90
59857;DHT22;45733;52.668;6.860;2023-09-18T14:23:07;24.60;99.90
59857;DHT22;45733;52.668;6.860;2023-09-18T14:25:33;24.60;99.90
59857;DHT22;45733;52.668;6.860;2023-09-18T14:28:02;24.60;99.90
59857;DHT22;45733;52.668;6.860;2023-09-18T14:30:28;24.20;99.90
59857;DHT22;45733;52.668;6.860;2023-09-18T14:32:57;23.60;99.90
59857;DHT22;45733;52.668;6.860;2023-09-18T14:35:28;23.20;99.90
59857;DHT22;45733;52.668;6.860;2023-09-18T14:37:54;23.50;99.90
59857;DHT22;45733;52.668;6.860;2023-09-18T14:40:24;24.00;99.90
59857;DHT22;45733;52.668;6.860;2023-09-18T14:42:50;24.10;99.90
59857;DHT22;45733;52.668;6.860;2023-09-18T14:45:15;24.20;99.90
59857;DHT22;45733;52.668;6.860;2023-09-18T14:47:41;24.30;99.90
59857;DHT22;45733;52.668;6.860;2023-09-18T14:50:07;24.30;99.90
59857;DHT22;45733;52.668;6.860;2023-09-18T14:52:34;24.00;99.90
59857;DHT22;45733;52.668;6.860;2023-09-18T14:54:59;24.30;99.90
59857;DHT22;45733;52.668;6.860;2023-09-18T14:57:26;24.30;99.90
59857;DHT22;45733;52.668;6.860;2023-09-18T14:59:52;24.40;99.90
59857;DHT22;45733;52.668;6.860;2023-09-18T15:02:18;24.50;99.90
59857;DHT22;45733;52.668;6.860;2023-09-18T15:04:44;24.60;99.90
59857;DHT22;45733;52.668;6.860;2023-09-18T15:07:10;24.80;99.90
59857;DHT22;45733;52.668;6.860;2023-09-18T15:09:39;25.00;99.90
59857;DHT22;45733;52.668;6.860;2023-09-18T15:12:05;24.40;99.90
59857;DHT22;45733;52.668;6.860;2023-09-18T15:14:34;24.40;99.90
59857;DHT22;45733;52.668;6.860;2023-09-18T15:17:01;24.50;99.90
59857;DHT22;45733;52.668;6.860;2023-09-18T15:19:26;24.60;99.90
59857;DHT22;45733;52.668;6.860;2023-09-18T15:21:52;24.50;99.90
59857;DHT22;45733;52.668;6.860;2023-09-18T15:24:23;24.50;99.90
59857;DHT22;45733;52.668;6.860;2023-09-18T15:26:48;24.30;99.90
59857;DHT22;45733;52.668;6.860;2023-09-18T15:29:14;24.30;99.90
59857;DHT22;45733;52.668;6.860;2023-09-18T15:31:41;23.80;99.90
59857;DHT22;45733;52.668;6.860;2023-09-18T15:34:09;23.90;99.90
59857;DHT22;45733;52.668;6.860;2023-09-18T15:36:34;24.00;99.90
59857;DHT22;45733;52.668;6.860;2023-09-18T15:39:03;24.10;99.90
59857;DHT22;45733;52.668;6.860;2023-09-18T15:41:29;24.10;99.90
59857;DHT22;45733;52.668;6.860;2023-09-18T15:43:57;24.00;99.90
59857;DHT22;45733;52.668;6.860;2023-09-18T15:46:23;24.00;99.90
59857;DHT22;45733;52.668;6.860;2023-09-18T15:48:48;24.00;99.90
59857;DHT22;45733;52.668;6.860;2023-09-18T15:51:15;23.90;99.90
59857;DHT22;45733;52.668;6.860;2023-09-18T15:53:41;23.80;99.90
59857;DHT22;45733;52.668;6.860;2023-09-18T15:56:07;23.70;99.90
59857;DHT22;45733;52.668;6.860;2023-09-18T15:58:32;23.70;99.90